Greenview, Illinois
Current Conditions -  °F | °C
As of 10:52 PM on Saturday 22 Nov 2014 (Local Time) from KSPI Reporting Station
Scattered Clouds Scattered Clouds  
Wind Chill: 52°   Ceiling: Unl
Heat Index: 52°   Visibility: 10mi
Dew Point: 48°   Wind: 15mph
Humidity: 86%   Direction: 180°S
Pressure: 29.86"   Gusts: NA
Location:  40.08°N, 89.74°W
Report Text: KSPI 230452Z AUTO 18013KT 10SM FEW048 FEW055 SCT085 11/09 A2986 RMK AO2 SLP111 T01110089
Loading
Personal Weather Stations






























Interactive Weather Map New forecast layout! Learn more

10-Day Weather Forecast

Advertisements
Track Severe Weather on mobile